メインページ
METAR-TAF:

METAR-TAF

空港 :

High Level, アルバータ州, カナダ

緯度: 58-37N, 経度: 117-10W, 海抜: 338m

現時点の気象観測

当レポートは23分前の01:00(UTC)に作成
変向風 2kt
気温 11°C
湿度 32%
気圧 1015 hPa
視程: 24.1km
高度7500ftの雲はほとんどない

METAR: CYOJ 250100Z VRB02KT 15SM FEW075 11/M05 A2998 RMK AC2 SLP171

時間: 19:23 (01:23 UTC)

予報

当レポートは45分前の00:38(UTC)に作成
予報は25日の 01時(UTC)から 25日の 13時(UTC)まで有効
北/北西の風 7kt
視程: 10km
高度8000ftの雲はほとんどない

TAF: CYOJ 250038Z 2501/2513 33007KT P6SM FEW080 RMK NXT FCST BY 250700Z

4,000以上の空港の気象観測と天気予報(METAR報とTAF報)

利用可能な観測所は地図上に黄色い丸と赤い丸で示す。

丸の上にカーソルを重ねると観測所名を参照できる。

次にクリックすると気象観測と天気予報を参照できる。

マップの切り替え:黒色「×」印の緑ボタンをクリックして拡大、「-」印の緑ボタンをクリックして縮小、緑色の三角印をクリックして隣りの地図に切り替え


METAR-TAF: